Terminal Aerodrome Forecast
Issued by NWS Sioux Falls, SD

Home | Current Version | Previous Version | Text Only | Print | Product List | Glossary On
Versions: 1 2 3 4 5 6 7 8 9 10 11 12 13 14 15 16 17
341
FTUS43 KFSD 141726
TAFHON
TAF
KHON 141726Z 1418/1518 18006KT P6SM OVC009
     FM142000 21005KT P6SM OVC015
     FM150200 20004KT P6SM OVC025
     FM150500 23004KT 3SM BR BKN025
     FM151300 28006KT P6SM SCT150=

USA.gov is the U.S. government's official web portal to all federal, state and local government web resources and services.